sensor_id;sensor_type;location;lat;lon;timestamp;P1;durP1;ratioP1;P2;durP2;ratioP2
9186;SDS011;7273;48.902;9.410;2022-12-18T00:02:05;6.32;;;3.15;;
9186;SDS011;7273;48.902;9.410;2022-12-18T00:04:30;8.52;;;2.45;;
9186;SDS011;7273;48.902;9.410;2022-12-18T00:06:56;9.20;;;2.75;;
9186;SDS011;7273;48.902;9.410;2022-12-18T00:09:21;3.03;;;2.17;;
9186;SDS011;7273;48.902;9.410;2022-12-18T00:11:47;6.63;;;2.55;;
9186;SDS011;7273;48.902;9.410;2022-12-18T00:14:12;8.30;;;4.80;;
9186;SDS011;7273;48.902;9.410;2022-12-18T00:16:39;2.05;;;1.35;;
9186;SDS011;7273;48.902;9.410;2022-12-18T00:19:05;3.08;;;1.50;;
9186;SDS011;7273;48.902;9.410;2022-12-18T00:21:32;4.35;;;1.73;;
9186;SDS011;7273;48.902;9.410;2022-12-18T00:23:59;1.33;;;0.88;;
9186;SDS011;7273;48.902;9.410;2022-12-18T00:26:29;2.25;;;1.25;;
9186;SDS011;7273;48.902;9.410;2022-12-18T00:28:59;3.65;;;2.47;;
9186;SDS011;7273;48.902;9.410;2022-12-18T00:31:27;2.88;;;1.83;;
9186;SDS011;7273;48.902;9.410;2022-12-18T00:33:56;7.93;;;3.00;;
9186;SDS011;7273;48.902;9.410;2022-12-18T00:36:23;3.40;;;2.42;;
9186;SDS011;7273;48.902;9.410;2022-12-18T00:38:54;3.60;;;2.28;;
9186;SDS011;7273;48.902;9.410;2022-12-18T00:41:20;4.03;;;2.17;;
9186;SDS011;7273;48.902;9.410;2022-12-18T00:44:05;1.95;;;1.55;;
9186;SDS011;7273;48.902;9.410;2022-12-18T00:46:32;2.15;;;1.95;;
9186;SDS011;7273;48.902;9.410;2022-12-18T00:48:58;1.85;;;1.13;;
9186;SDS011;7273;48.902;9.410;2022-12-18T00:51:24;3.00;;;1.67;;
9186;SDS011;7273;48.902;9.410;2022-12-18T00:53:50;5.25;;;3.38;;
9186;SDS011;7273;48.902;9.410;2022-12-18T00:56:15;3.85;;;2.08;;
9186;SDS011;7273;48.902;9.410;2022-12-18T00:58:40;5.03;;;2.33;;
9186;SDS011;7273;48.902;9.410;2022-12-18T01:01:06;9.25;;;3.50;;
9186;SDS011;7273;48.902;9.410;2022-12-18T01:03:32;2.42;;;1.98;;
9186;SDS011;7273;48.902;9.410;2022-12-18T01:05:58;3.38;;;3.08;;
9186;SDS011;7273;48.902;9.410;2022-12-18T01:08:23;6.45;;;3.53;;
9186;SDS011;7273;48.902;9.410;2022-12-18T01:10:49;3.88;;;3.30;;
9186;SDS011;7273;48.902;9.410;2022-12-18T01:13:14;3.83;;;3.40;;
9186;SDS011;7273;48.902;9.410;2022-12-18T01:15:40;9.05;;;4.75;;
9186;SDS011;7273;48.902;9.410;2022-12-18T01:18:05;2.40;;;2.10;;
9186;SDS011;7273;48.902;9.410;2022-12-18T01:20:31;15.48;;;4.25;;
9186;SDS011;7273;48.902;9.410;2022-12-18T01:22:57;17.90;;;16.33;;
9186;SDS011;7273;48.902;9.410;2022-12-18T01:25:23;12.52;;;11.35;;
9186;SDS011;7273;48.902;9.410;2022-12-18T01:27:48;15.85;;;13.13;;
9186;SDS011;7273;48.902;9.410;2022-12-18T01:30:13;4.03;;;3.22;;
9186;SDS011;7273;48.902;9.410;2022-12-18T01:32:39;12.25;;;9.13;;
9186;SDS011;7273;48.902;9.410;2022-12-18T01:35:05;14.05;;;12.90;;
9186;SDS011;7273;48.902;9.410;2022-12-18T01:37:31;10.70;;;9.73;;
9186;SDS011;7273;48.902;9.410;2022-12-18T01:39:56;7.00;;;6.28;;
9186;SDS011;7273;48.902;9.410;2022-12-18T01:42:21;4.55;;;3.58;;
9186;SDS011;7273;48.902;9.410;2022-12-18T01:47:45;3.00;;;2.78;;
9186;SDS011;7273;48.902;9.410;2022-12-18T01:50:13;5.78;;;5.30;;
9186;SDS011;7273;48.902;9.410;2022-12-18T01:52:39;10.85;;;5.32;;
9186;SDS011;7273;48.902;9.410;2022-12-18T01:55:08;5.35;;;3.85;;
9186;SDS011;7273;48.902;9.410;2022-12-18T01:57:34;9.00;;;2.83;;
9186;SDS011;7273;48.902;9.410;2022-12-18T02:00:03;2.10;;;1.70;;
9186;SDS011;7273;48.902;9.410;2022-12-18T02:02:33;2.47;;;2.03;;
9186;SDS011;7273;48.902;9.410;2022-12-18T02:04:59;7.22;;;2.55;;
9186;SDS011;7273;48.902;9.410;2022-12-18T02:07:42;2.38;;;1.98;;
9186;SDS011;7273;48.902;9.410;2022-12-18T02:10:20;2.22;;;1.60;;
9186;SDS011;7273;48.902;9.410;2022-12-18T02:12:54;2.97;;;1.70;;
9186;SDS011;7273;48.902;9.410;2022-12-18T02:18:41;2.08;;;1.88;;
9186;SDS011;7273;48.902;9.410;2022-12-18T02:27:16;0.77;;;0.70;;
9186;SDS011;7273;48.902;9.410;2022-12-18T02:29:32;4.28;;;1.58;;
9186;SDS011;7273;48.902;9.410;2022-12-18T02:32:04;2.45;;;1.88;;
9186;SDS011;7273;48.902;9.410;2022-12-18T02:34:36;1.73;;;1.48;;
9186;SDS011;7273;48.902;9.410;2022-12-18T02:37:04;3.45;;;3.13;;
9186;SDS011;7273;48.902;9.410;2022-12-18T02:39:35;5.15;;;4.45;;
9186;SDS011;7273;48.902;9.410;2022-12-18T02:42:02;4.53;;;3.53;;
9186;SDS011;7273;48.902;9.410;2022-12-18T02:44:32;3.13;;;2.83;;
9186;SDS011;7273;48.902;9.410;2022-12-18T02:46:59;5.88;;;3.78;;
9186;SDS011;7273;48.902;9.410;2022-12-18T02:49:39;5.20;;;4.68;;
9186;SDS011;7273;48.902;9.410;2022-12-18T03:02:46;5.32;;;4.82;;
9186;SDS011;7273;48.902;9.410;2022-12-18T03:05:30;3.00;;;2.75;;
9186;SDS011;7273;48.902;9.410;2022-12-18T03:08:08;3.55;;;3.28;;
9186;SDS011;7273;48.902;9.410;2022-12-18T03:10:41;4.55;;;3.72;;
9186;SDS011;7273;48.902;9.410;2022-12-18T03:13:13;2.17;;;1.63;;
9186;SDS011;7273;48.902;9.410;2022-12-18T03:15:49;2.20;;;2.00;;
9186;SDS011;7273;48.902;9.410;2022-12-18T03:18:38;2.75;;;1.75;;
9186;SDS011;7273;48.902;9.410;2022-12-18T03:21:11;4.28;;;3.13;;
9186;SDS011;7273;48.902;9.410;2022-12-18T03:23:40;3.10;;;2.75;;
9186;SDS011;7273;48.902;9.410;2022-12-18T03:26:10;2.72;;;2.08;;
9186;SDS011;7273;48.902;9.410;2022-12-18T03:28:41;2.67;;;2.05;;
9186;SDS011;7273;48.902;9.410;2022-12-18T03:31:11;1.73;;;1.30;;
9186;SDS011;7273;48.902;9.410;2022-12-18T03:33:43;2.67;;;2.17;;
9186;SDS011;7273;48.902;9.410;2022-12-18T03:36:19;5.53;;;3.90;;
9186;SDS011;7273;48.902;9.410;2022-12-18T03:38:45;2.85;;;1.95;;
9186;SDS011;7273;48.902;9.410;2022-12-18T03:52:33;2.67;;;2.42;;
9186;SDS011;7273;48.902;9.410;2022-12-18T03:55:07;1.90;;;1.77;;
9186;SDS011;7273;48.902;9.410;2022-12-18T03:57:34;2.70;;;2.22;;
9186;SDS011;7273;48.902;9.410;2022-12-18T04:00:05;1.45;;;1.10;;
9186;SDS011;7273;48.902;9.410;2022-12-18T04:02:34;1.42;;;1.23;;
9186;SDS011;7273;48.902;9.410;2022-12-18T04:05:04;2.40;;;1.85;;
9186;SDS011;7273;48.902;9.410;2022-12-18T04:07:32;6.70;;;3.45;;
9186;SDS011;7273;48.902;9.410;2022-12-18T04:09:58;1.75;;;1.30;;
9186;SDS011;7273;48.902;9.410;2022-12-18T04:12:27;4.45;;;3.83;;
9186;SDS011;7273;48.902;9.410;2022-12-18T04:14:54;2.72;;;1.98;;
9186;SDS011;7273;48.902;9.410;2022-12-18T04:17:20;9.98;;;2.88;;
9186;SDS011;7273;48.902;9.410;2022-12-18T04:19:46;15.48;;;4.10;;
9186;SDS011;7273;48.902;9.410;2022-12-18T04:22:11;1.88;;;1.33;;
9186;SDS011;7273;48.902;9.410;2022-12-18T04:24:37;2.92;;;1.92;;
9186;SDS011;7273;48.902;9.410;2022-12-18T04:27:02;2.42;;;2.13;;
9186;SDS011;7273;48.902;9.410;2022-12-18T04:29:28;2.75;;;2.25;;
9186;SDS011;7273;48.902;9.410;2022-12-18T04:31:54;6.70;;;3.38;;
9186;SDS011;7273;48.902;9.410;2022-12-18T04:34:19;1.65;;;1.55;;
9186;SDS011;7273;48.902;9.410;2022-12-18T04:36:45;4.63;;;3.08;;
9186;SDS011;7273;48.902;9.410;2022-12-18T04:39:11;3.10;;;2.85;;
9186;SDS011;7273;48.902;9.410;2022-12-18T04:41:36;4.25;;;3.53;;
9186;SDS011;7273;48.902;9.410;2022-12-18T04:44:01;2.70;;;2.38;;
9186;SDS011;7273;48.902;9.410;2022-12-18T04:46:27;4.78;;;3.58;;
9186;SDS011;7273;48.902;9.410;2022-12-18T04:48:53;6.20;;;4.50;;
9186;SDS011;7273;48.902;9.410;2022-12-18T04:51:18;8.23;;;4.22;;
9186;SDS011;7273;48.902;9.410;2022-12-18T04:53:43;3.37;;;2.40;;
9186;SDS011;7273;48.902;9.410;2022-12-18T04:56:10;1.70;;;1.45;;
9186;SDS011;7273;48.902;9.410;2022-12-18T04:58:37;1.80;;;1.58;;
9186;SDS011;7273;48.902;9.410;2022-12-18T05:01:05;4.63;;;3.38;;
9186;SDS011;7273;48.902;9.410;2022-12-18T05:03:32;2.33;;;1.90;;
9186;SDS011;7273;48.902;9.410;2022-12-18T05:05:58;2.25;;;1.70;;
9186;SDS011;7273;48.902;9.410;2022-12-18T05:08:23;4.47;;;3.40;;
9186;SDS011;7273;48.902;9.410;2022-12-18T05:10:49;6.15;;;1.70;;
9186;SDS011;7273;48.902;9.410;2022-12-18T05:13:14;3.53;;;2.58;;
9186;SDS011;7273;48.902;9.410;2022-12-18T05:15:40;2.80;;;2.10;;
9186;SDS011;7273;48.902;9.410;2022-12-18T05:18:06;2.67;;;2.03;;
9186;SDS011;7273;48.902;9.410;2022-12-18T05:20:32;3.58;;;2.65;;
9186;SDS011;7273;48.902;9.410;2022-12-18T05:22:57;5.50;;;3.17;;
9186;SDS011;7273;48.902;9.410;2022-12-18T05:25:23;6.82;;;2.95;;
9186;SDS011;7273;48.902;9.410;2022-12-18T05:27:49;1.38;;;1.20;;
9186;SDS011;7273;48.902;9.410;2022-12-18T05:30:15;1.90;;;1.52;;
9186;SDS011;7273;48.902;9.410;2022-12-18T05:32:41;1.65;;;1.55;;
9186;SDS011;7273;48.902;9.410;2022-12-18T05:35:07;2.28;;;2.10;;
9186;SDS011;7273;48.902;9.410;2022-12-18T05:37:34;2.38;;;2.10;;
9186;SDS011;7273;48.902;9.410;2022-12-18T05:40:00;3.35;;;2.42;;
9186;SDS011;7273;48.902;9.410;2022-12-18T05:42:26;2.90;;;1.40;;
9186;SDS011;7273;48.902;9.410;2022-12-18T05:44:51;3.35;;;3.03;;
9186;SDS011;7273;48.902;9.410;2022-12-18T05:47:17;3.33;;;2.35;;
9186;SDS011;7273;48.902;9.410;2022-12-18T05:49:42;2.95;;;2.05;;
9186;SDS011;7273;48.902;9.410;2022-12-18T05:52:08;2.08;;;1.52;;
9186;SDS011;7273;48.902;9.410;2022-12-18T05:54:34;2.55;;;1.42;;
9186;SDS011;7273;48.902;9.410;2022-12-18T05:56:59;2.60;;;1.85;;
9186;SDS011;7273;48.902;9.410;2022-12-18T05:59:25;4.10;;;2.65;;
9186;SDS011;7273;48.902;9.410;2022-12-18T06:01:50;2.28;;;1.65;;
9186;SDS011;7273;48.902;9.410;2022-12-18T06:04:16;3.03;;;1.75;;
9186;SDS011;7273;48.902;9.410;2022-12-18T06:06:42;6.38;;;3.72;;
9186;SDS011;7273;48.902;9.410;2022-12-18T06:09:07;5.00;;;2.70;;
9186;SDS011;7273;48.902;9.410;2022-12-18T06:11:35;4.00;;;3.60;;
9186;SDS011;7273;48.902;9.410;2022-12-18T06:14:01;4.00;;;2.38;;
9186;SDS011;7273;48.902;9.410;2022-12-18T06:16:28;9.15;;;3.22;;
9186;SDS011;7273;48.902;9.410;2022-12-18T06:19:00;2.20;;;1.75;;
9186;SDS011;7273;48.902;9.410;2022-12-18T06:21:27;1.48;;;1.35;;
9186;SDS011;7273;48.902;9.410;2022-12-18T06:23:53;5.63;;;3.65;;
9186;SDS011;7273;48.902;9.410;2022-12-18T06:26:19;4.03;;;3.05;;
9186;SDS011;7273;48.902;9.410;2022-12-18T06:28:44;2.83;;;2.05;;
9186;SDS011;7273;48.902;9.410;2022-12-18T06:31:10;1.20;;;1.10;;
9186;SDS011;7273;48.902;9.410;2022-12-18T06:33:36;3.22;;;2.88;;
9186;SDS011;7273;48.902;9.410;2022-12-18T06:36:07;12.10;;;5.88;;
9186;SDS011;7273;48.902;9.410;2022-12-18T06:38:35;4.80;;;3.00;;
9186;SDS011;7273;48.902;9.410;2022-12-18T06:41:05;3.60;;;2.80;;
9186;SDS011;7273;48.902;9.410;2022-12-18T06:43:35;3.35;;;2.53;;
9186;SDS011;7273;48.902;9.410;2022-12-18T06:46:01;2.38;;;2.22;;
9186;SDS011;7273;48.902;9.410;2022-12-18T06:48:27;4.20;;;3.53;;
9186;SDS011;7273;48.902;9.410;2022-12-18T06:50:53;3.60;;;3.15;;
9186;SDS011;7273;48.902;9.410;2022-12-18T06:53:18;11.53;;;3.80;;
9186;SDS011;7273;48.902;9.410;2022-12-18T06:55:44;3.60;;;3.22;;
9186;SDS011;7273;48.902;9.410;2022-12-18T06:58:09;3.90;;;3.22;;
9186;SDS011;7273;48.902;9.410;2022-12-18T07:00:35;4.03;;;3.70;;
9186;SDS011;7273;48.902;9.410;2022-12-18T07:03:00;3.97;;;3.63;;
9186;SDS011;7273;48.902;9.410;2022-12-18T07:05:25;3.63;;;3.25;;
9186;SDS011;7273;48.902;9.410;2022-12-18T07:07:51;3.07;;;2.77;;
9186;SDS011;7273;48.902;9.410;2022-12-18T07:10:17;3.88;;;3.58;;
9186;SDS011;7273;48.902;9.410;2022-12-18T07:12:42;4.70;;;4.25;;
9186;SDS011;7273;48.902;9.410;2022-12-18T07:15:08;3.95;;;3.63;;
9186;SDS011;7273;48.902;9.410;2022-12-18T07:17:34;3.20;;;3.00;;
9186;SDS011;7273;48.902;9.410;2022-12-18T07:19:59;4.30;;;3.92;;
9186;SDS011;7273;48.902;9.410;2022-12-18T07:22:25;5.82;;;4.43;;
9186;SDS011;7273;48.902;9.410;2022-12-18T07:24:51;8.60;;;4.78;;
9186;SDS011;7273;48.902;9.410;2022-12-18T07:27:16;5.90;;;5.28;;
9186;SDS011;7273;48.902;9.410;2022-12-18T07:29:42;3.47;;;3.17;;
9186;SDS011;7273;48.902;9.410;2022-12-18T07:32:07;7.05;;;4.53;;
9186;SDS011;7273;48.902;9.410;2022-12-18T07:34:33;4.75;;;4.32;;
9186;SDS011;7273;48.902;9.410;2022-12-18T07:36:59;4.20;;;3.80;;
9186;SDS011;7273;48.902;9.410;2022-12-18T07:39:24;6.35;;;5.72;;
9186;SDS011;7273;48.902;9.410;2022-12-18T07:41:50;6.68;;;5.65;;
9186;SDS011;7273;48.902;9.410;2022-12-18T07:44:33;5.35;;;4.95;;
9186;SDS011;7273;48.902;9.410;2022-12-18T07:46:59;4.22;;;3.55;;
9186;SDS011;7273;48.902;9.410;2022-12-18T07:49:24;5.70;;;4.53;;
9186;SDS011;7273;48.902;9.410;2022-12-18T07:51:50;5.27;;;4.80;;
9186;SDS011;7273;48.902;9.410;2022-12-18T07:54:15;5.63;;;5.10;;
9186;SDS011;7273;48.902;9.410;2022-12-18T07:56:40;9.40;;;5.38;;
9186;SDS011;7273;48.902;9.410;2022-12-18T07:59:06;6.50;;;5.18;;
9186;SDS011;7273;48.902;9.410;2022-12-18T08:01:32;11.43;;;5.72;;
9186;SDS011;7273;48.902;9.410;2022-12-18T08:03:59;4.20;;;3.80;;
9186;SDS011;7273;48.902;9.410;2022-12-18T08:06:24;12.80;;;4.57;;
9186;SDS011;7273;48.902;9.410;2022-12-18T08:08:53;4.15;;;3.72;;
9186;SDS011;7273;48.902;9.410;2022-12-18T08:11:19;4.47;;;4.07;;
9186;SDS011;7273;48.902;9.410;2022-12-18T08:13:45;9.23;;;5.35;;
9186;SDS011;7273;48.902;9.410;2022-12-18T08:16:11;2.80;;;2.60;;
9186;SDS011;7273;48.902;9.410;2022-12-18T08:18:36;2.97;;;2.73;;
9186;SDS011;7273;48.902;9.410;2022-12-18T08:21:09;7.28;;;3.92;;
9186;SDS011;7273;48.902;9.410;2022-12-18T08:23:36;4.93;;;4.45;;
9186;SDS011;7273;48.902;9.410;2022-12-18T08:26:01;7.63;;;5.63;;
9186;SDS011;7273;48.902;9.410;2022-12-18T08:28:27;4.20;;;3.80;;
9186;SDS011;7273;48.902;9.410;2022-12-18T08:30:52;3.00;;;2.75;;
9186;SDS011;7273;48.902;9.410;2022-12-18T08:33:18;3.00;;;2.67;;
9186;SDS011;7273;48.902;9.410;2022-12-18T08:35:43;4.32;;;3.92;;
9186;SDS011;7273;48.902;9.410;2022-12-18T08:38:08;6.25;;;3.53;;
9186;SDS011;7273;48.902;9.410;2022-12-18T08:40:34;6.13;;;3.05;;
9186;SDS011;7273;48.902;9.410;2022-12-18T08:42:59;7.55;;;3.75;;
9186;SDS011;7273;48.902;9.410;2022-12-18T08:45:43;2.38;;;2.17;;
9186;SDS011;7273;48.902;9.410;2022-12-18T08:48:09;4.20;;;3.00;;
9186;SDS011;7273;48.902;9.410;2022-12-18T08:50:34;4.45;;;2.03;;
9186;SDS011;7273;48.902;9.410;2022-12-18T08:53:00;3.07;;;2.07;;
9186;SDS011;7273;48.902;9.410;2022-12-18T08:55:26;9.63;;;3.13;;
9186;SDS011;7273;48.902;9.410;2022-12-18T08:57:51;2.43;;;2.23;;
9186;SDS011;7273;48.902;9.410;2022-12-18T09:00:17;5.97;;;4.00;;
9186;SDS011;7273;48.902;9.410;2022-12-18T09:02:42;2.97;;;2.60;;
9186;SDS011;7273;48.902;9.410;2022-12-18T09:05:08;3.50;;;3.25;;
9186;SDS011;7273;48.902;9.410;2022-12-18T09:07:33;5.38;;;2.35;;
9186;SDS011;7273;48.902;9.410;2022-12-18T09:09:59;1.70;;;1.50;;
9186;SDS011;7273;48.902;9.410;2022-12-18T09:12:25;2.20;;;1.45;;
9186;SDS011;7273;48.902;9.410;2022-12-18T09:14:50;1.90;;;1.73;;
9186;SDS011;7273;48.902;9.410;2022-12-18T09:17:16;2.30;;;1.20;;
9186;SDS011;7273;48.902;9.410;2022-12-18T09:19:41;5.38;;;2.35;;
9186;SDS011;7273;48.902;9.410;2022-12-18T09:22:07;1.17;;;0.85;;
9186;SDS011;7273;48.902;9.410;2022-12-18T09:24:32;3.53;;;2.30;;
9186;SDS011;7273;48.902;9.410;2022-12-18T09:26:57;7.30;;;1.40;;
9186;SDS011;7273;48.902;9.410;2022-12-18T09:29:23;2.00;;;1.05;;
9186;SDS011;7273;48.902;9.410;2022-12-18T09:31:49;2.83;;;1.65;;
9186;SDS011;7273;48.902;9.410;2022-12-18T09:34:15;1.38;;;0.80;;
9186;SDS011;7273;48.902;9.410;2022-12-18T09:36:41;5.38;;;3.05;;
9186;SDS011;7273;48.902;9.410;2022-12-18T09:39:07;5.43;;;2.33;;
9186;SDS011;7273;48.902;9.410;2022-12-18T09:44:15;2.30;;;1.73;;
9186;SDS011;7273;48.902;9.410;2022-12-18T09:46:51;0.65;;;0.30;;
9186;SDS011;7273;48.902;9.410;2022-12-18T09:49:23;11.30;;;1.08;;
9186;SDS011;7273;48.902;9.410;2022-12-18T09:51:56;6.32;;;3.13;;
9186;SDS011;7273;48.902;9.410;2022-12-18T09:54:45;3.15;;;1.70;;
9186;SDS011;7273;48.902;9.410;2022-12-18T09:57:17;4.00;;;1.55;;
9186;SDS011;7273;48.902;9.410;2022-12-18T09:59:50;1.77;;;1.08;;
9186;SDS011;7273;48.902;9.410;2022-12-18T10:02:20;6.13;;;2.47;;
9186;SDS011;7273;48.902;9.410;2022-12-18T10:04:55;3.25;;;1.88;;
9186;SDS011;7273;48.902;9.410;2022-12-18T10:07:55;2.28;;;1.23;;
9186;SDS011;7273;48.902;9.410;2022-12-18T10:21:30;2.83;;;1.88;;
9186;SDS011;7273;48.902;9.410;2022-12-18T10:24:14;5.35;;;2.95;;
9186;SDS011;7273;48.902;9.410;2022-12-18T10:26:41;6.60;;;2.88;;
9186;SDS011;7273;48.902;9.410;2022-12-18T10:29:14;3.60;;;1.67;;
9186;SDS011;7273;48.902;9.410;2022-12-18T10:31:40;14.82;;;3.20;;
9186;SDS011;7273;48.902;9.410;2022-12-18T10:34:12;5.25;;;2.47;;
9186;SDS011;7273;48.902;9.410;2022-12-18T10:36:38;5.47;;;1.85;;
9186;SDS011;7273;48.902;9.410;2022-12-18T10:39:17;1.85;;;0.85;;
9186;SDS011;7273;48.902;9.410;2022-12-18T10:41:47;3.85;;;2.60;;
9186;SDS011;7273;48.902;9.410;2022-12-18T10:44:16;14.10;;;2.65;;
9186;SDS011;7273;48.902;9.410;2022-12-18T10:46:50;7.25;;;2.50;;
9186;SDS011;7273;48.902;9.410;2022-12-18T10:49:28;2.55;;;1.50;;
9186;SDS011;7273;48.902;9.410;2022-12-18T10:54:49;4.13;;;1.90;;
9186;SDS011;7273;48.902;9.410;2022-12-18T10:59:53;5.93;;;3.08;;
9186;SDS011;7273;48.902;9.410;2022-12-18T11:02:27;1.35;;;0.82;;
9186;SDS011;7273;48.902;9.410;2022-12-18T11:05:01;4.72;;;1.98;;
9186;SDS011;7273;48.902;9.410;2022-12-18T11:07:46;3.33;;;1.98;;
9186;SDS011;7273;48.902;9.410;2022-12-18T11:10:17;2.53;;;0.95;;
9186;SDS011;7273;48.902;9.410;2022-12-18T11:12:43;5.20;;;3.78;;
9186;SDS011;7273;48.902;9.410;2022-12-18T11:15:16;11.13;;;3.05;;
9186;SDS011;7273;48.902;9.410;2022-12-18T11:17:46;4.70;;;2.10;;
9186;SDS011;7273;48.902;9.410;2022-12-18T11:22:55;2.78;;;1.52;;
9186;SDS011;7273;48.902;9.410;2022-12-18T11:25:23;2.78;;;0.90;;
9186;SDS011;7273;48.902;9.410;2022-12-18T11:27:50;4.60;;;2.33;;
9186;SDS011;7273;48.902;9.410;2022-12-18T11:30:26;4.35;;;2.13;;
9186;SDS011;7273;48.902;9.410;2022-12-18T11:35:20;2.07;;;0.77;;
9186;SDS011;7273;48.902;9.410;2022-12-18T11:37:59;4.35;;;1.83;;
9186;SDS011;7273;48.902;9.410;2022-12-18T11:40:53;1.92;;;0.95;;
9186;SDS011;7273;48.902;9.410;2022-12-18T11:43:40;20.17;;;2.72;;
9186;SDS011;7273;48.902;9.410;2022-12-18T11:46:23;4.85;;;3.13;;
9186;SDS011;7273;48.902;9.410;2022-12-18T11:48:58;3.95;;;2.60;;
9186;SDS011;7273;48.902;9.410;2022-12-18T11:51:37;1.98;;;1.23;;
9186;SDS011;7273;48.902;9.410;2022-12-18T11:54:14;3.38;;;1.33;;
9186;SDS011;7273;48.902;9.410;2022-12-18T11:56:49;5.00;;;4.05;;
9186;SDS011;7273;48.902;9.410;2022-12-18T12:04:48;2.47;;;1.65;;
9186;SDS011;7273;48.902;9.410;2022-12-18T12:15:34;7.53;;;2.35;;
9186;SDS011;7273;48.902;9.410;2022-12-18T12:18:23;3.38;;;1.75;;
9186;SDS011;7273;48.902;9.410;2022-12-18T12:21:08;3.15;;;1.80;;
9186;SDS011;7273;48.902;9.410;2022-12-18T12:26:45;7.22;;;2.25;;
9186;SDS011;7273;48.902;9.410;2022-12-18T12:31:56;3.90;;;2.03;;
9186;SDS011;7273;48.902;9.410;2022-12-18T12:39:54;8.85;;;4.20;;
9186;SDS011;7273;48.902;9.410;2022-12-18T12:42:24;3.00;;;1.20;;
9186;SDS011;7273;48.902;9.410;2022-12-18T12:45:19;2.78;;;1.13;;
9186;SDS011;7273;48.902;9.410;2022-12-18T12:47:51;3.33;;;2.00;;
9186;SDS011;7273;48.902;9.410;2022-12-18T12:50:18;2.13;;;1.52;;
9186;SDS011;7273;48.902;9.410;2022-12-18T12:52:50;3.22;;;1.27;;
9186;SDS011;7273;48.902;9.410;2022-12-18T12:55:22;1.63;;;0.77;;
9186;SDS011;7273;48.902;9.410;2022-12-18T12:58:01;8.45;;;2.65;;
9186;SDS011;7273;48.902;9.410;2022-12-18T13:08:53;11.38;;;2.42;;
9186;SDS011;7273;48.902;9.410;2022-12-18T13:11:45;3.85;;;1.95;;
9186;SDS011;7273;48.902;9.410;2022-12-18T13:20:03;5.95;;;2.47;;
9186;SDS011;7273;48.902;9.410;2022-12-18T13:22:35;7.85;;;1.52;;
9186;SDS011;7273;48.902;9.410;2022-12-18T13:30:47;6.65;;;3.13;;
9186;SDS011;7273;48.902;9.410;2022-12-18T13:41:00;3.25;;;1.55;;
9186;SDS011;7273;48.902;9.410;2022-12-18T13:51:43;0.95;;;0.28;;
9186;SDS011;7273;48.902;9.410;2022-12-18T13:54:32;0.57;;;0.38;;
9186;SDS011;7273;48.902;9.410;2022-12-18T13:57:04;2.42;;;2.22;;
9186;SDS011;7273;48.902;9.410;2022-12-18T14:02:05;5.47;;;3.22;;
9186;SDS011;7273;48.902;9.410;2022-12-18T14:04:38;1.52;;;1.15;;
9186;SDS011;7273;48.902;9.410;2022-12-18T14:09:45;0.82;;;0.50;;
9186;SDS011;7273;48.902;9.410;2022-12-18T14:12:18;1.20;;;0.55;;
9186;SDS011;7273;48.902;9.410;2022-12-18T14:15:06;3.00;;;1.35;;
9186;SDS011;7273;48.902;9.410;2022-12-18T14:17:44;2.83;;;1.85;;
9186;SDS011;7273;48.902;9.410;2022-12-18T14:20:15;1.98;;;1.48;;
9186;SDS011;7273;48.902;9.410;2022-12-18T14:22:43;2.17;;;1.67;;
9186;SDS011;7273;48.902;9.410;2022-12-18T14:25:21;2.75;;;1.92;;
9186;SDS011;7273;48.902;9.410;2022-12-18T14:28:31;2.30;;;1.25;;
9186;SDS011;7273;48.902;9.410;2022-12-18T14:30:40;2.70;;;1.83;;
9186;SDS011;7273;48.902;9.410;2022-12-18T14:33:09;2.63;;;1.90;;
9186;SDS011;7273;48.902;9.410;2022-12-18T14:35:40;2.50;;;1.75;;
9186;SDS011;7273;48.902;9.410;2022-12-18T14:40:56;2.75;;;2.25;;
9186;SDS011;7273;48.902;9.410;2022-12-18T14:43:23;4.10;;;1.73;;
9186;SDS011;7273;48.902;9.410;2022-12-18T14:45:49;2.58;;;1.33;;
9186;SDS011;7273;48.902;9.410;2022-12-18T14:48:20;2.25;;;1.33;;
9186;SDS011;7273;48.902;9.410;2022-12-18T14:50:53;2.28;;;1.27;;
9186;SDS011;7273;48.902;9.410;2022-12-18T14:53:35;3.67;;;1.40;;
9186;SDS011;7273;48.902;9.410;2022-12-18T14:56:35;1.38;;;0.57;;
9186;SDS011;7273;48.902;9.410;2022-12-18T14:59:11;2.45;;;1.20;;
9186;SDS011;7273;48.902;9.410;2022-12-18T15:01:46;7.32;;;1.25;;
9186;SDS011;7273;48.902;9.410;2022-12-18T15:04:26;1.38;;;0.73;;
9186;SDS011;7273;48.902;9.410;2022-12-18T15:07:04;3.15;;;1.95;;
9186;SDS011;7273;48.902;9.410;2022-12-18T15:09:33;4.40;;;2.58;;
9186;SDS011;7273;48.902;9.410;2022-12-18T15:12:00;3.47;;;1.85;;
9186;SDS011;7273;48.902;9.410;2022-12-18T15:16:54;4.88;;;2.60;;
9186;SDS011;7273;48.902;9.410;2022-12-18T15:19:21;2.05;;;1.00;;
9186;SDS011;7273;48.902;9.410;2022-12-18T15:21:53;4.40;;;1.85;;
9186;SDS011;7273;48.902;9.410;2022-12-18T15:24:20;2.97;;;1.15;;
9186;SDS011;7273;48.902;9.410;2022-12-18T15:26:51;3.13;;;1.15;;
9186;SDS011;7273;48.902;9.410;2022-12-18T15:29:20;0.20;;;0.10;;
9186;SDS011;7273;48.902;9.410;2022-12-18T15:32:00;1.98;;;1.25;;
9186;SDS011;7273;48.902;9.410;2022-12-18T15:34:30;3.05;;;1.23;;
9186;SDS011;7273;48.902;9.410;2022-12-18T15:36:57;6.82;;;1.83;;
9186;SDS011;7273;48.902;9.410;2022-12-18T15:39:22;6.13;;;1.77;;
9186;SDS011;7273;48.902;9.410;2022-12-18T15:41:48;5.05;;;2.90;;
9186;SDS011;7273;48.902;9.410;2022-12-18T15:44:32;8.48;;;3.33;;
9186;SDS011;7273;48.902;9.410;2022-12-18T15:46:58;4.20;;;1.85;;
9186;SDS011;7273;48.902;9.410;2022-12-18T15:49:24;6.47;;;3.53;;
9186;SDS011;7273;48.902;9.410;2022-12-18T15:51:54;4.97;;;2.33;;
9186;SDS011;7273;48.902;9.410;2022-12-18T15:54:21;5.38;;;2.67;;
9186;SDS011;7273;48.902;9.410;2022-12-18T15:57:10;3.30;;;2.05;;
9186;SDS011;7273;48.902;9.410;2022-12-18T15:59:52;3.97;;;2.33;;
9186;SDS011;7273;48.902;9.410;2022-12-18T16:02:21;5.20;;;1.85;;
9186;SDS011;7273;48.902;9.410;2022-12-18T16:04:48;3.85;;;1.80;;
9186;SDS011;7273;48.902;9.410;2022-12-18T16:07:14;3.58;;;2.08;;
9186;SDS011;7273;48.902;9.410;2022-12-18T16:09:40;5.43;;;2.35;;
9186;SDS011;7273;48.902;9.410;2022-12-18T16:12:08;3.10;;;1.67;;
9186;SDS011;7273;48.902;9.410;2022-12-18T16:14:40;11.00;;;3.30;;
9186;SDS011;7273;48.902;9.410;2022-12-18T16:17:08;2.83;;;1.55;;
9186;SDS011;7273;48.902;9.410;2022-12-18T16:19:35;4.18;;;1.83;;
9186;SDS011;7273;48.902;9.410;2022-12-18T16:22:00;2.10;;;1.05;;
9186;SDS011;7273;48.902;9.410;2022-12-18T16:24:27;2.40;;;1.33;;
9186;SDS011;7273;48.902;9.410;2022-12-18T16:26:55;1.25;;;1.17;;
9186;SDS011;7273;48.902;9.410;2022-12-18T16:29:22;2.53;;;1.63;;
9186;SDS011;7273;48.902;9.410;2022-12-18T16:31:51;4.03;;;3.03;;
9186;SDS011;7273;48.902;9.410;2022-12-18T16:34:27;0.98;;;0.68;;
9186;SDS011;7273;48.902;9.410;2022-12-18T16:36:55;2.78;;;1.65;;
9186;SDS011;7273;48.902;9.410;2022-12-18T16:39:23;2.00;;;1.13;;
9186;SDS011;7273;48.902;9.410;2022-12-18T16:41:48;2.05;;;1.63;;
9186;SDS011;7273;48.902;9.410;2022-12-18T16:44:14;9.02;;;3.10;;
9186;SDS011;7273;48.902;9.410;2022-12-18T16:46:40;1.27;;;0.88;;
9186;SDS011;7273;48.902;9.410;2022-12-18T16:49:10;1.05;;;0.60;;
9186;SDS011;7273;48.902;9.410;2022-12-18T16:51:38;2.17;;;1.75;;
9186;SDS011;7273;48.902;9.410;2022-12-18T16:54:04;3.17;;;2.25;;
9186;SDS011;7273;48.902;9.410;2022-12-18T16:56:30;3.90;;;2.78;;
9186;SDS011;7273;48.902;9.410;2022-12-18T16:58:56;9.00;;;2.42;;
9186;SDS011;7273;48.902;9.410;2022-12-18T17:01:24;1.90;;;1.38;;
9186;SDS011;7273;48.902;9.410;2022-12-18T17:03:54;6.70;;;3.30;;
9186;SDS011;7273;48.902;9.410;2022-12-18T17:06:22;5.68;;;2.25;;
9186;SDS011;7273;48.902;9.410;2022-12-18T17:08:53;6.53;;;2.53;;
9186;SDS011;7273;48.902;9.410;2022-12-18T17:11:23;2.22;;;1.98;;
9186;SDS011;7273;48.902;9.410;2022-12-18T17:13:50;2.17;;;1.23;;
9186;SDS011;7273;48.902;9.410;2022-12-18T17:16:17;2.88;;;1.65;;
9186;SDS011;7273;48.902;9.410;2022-12-18T17:18:43;6.70;;;2.85;;
9186;SDS011;7273;48.902;9.410;2022-12-18T17:21:08;3.15;;;2.03;;
9186;SDS011;7273;48.902;9.410;2022-12-18T17:23:35;8.32;;;3.97;;
9186;SDS011;7273;48.902;9.410;2022-12-18T17:26:01;4.13;;;2.50;;
9186;SDS011;7273;48.902;9.410;2022-12-18T17:28:28;4.63;;;3.47;;
9186;SDS011;7273;48.902;9.410;2022-12-18T17:30:54;2.65;;;1.48;;
9186;SDS011;7273;48.902;9.410;2022-12-18T17:33:20;8.98;;;2.72;;
9186;SDS011;7273;48.902;9.410;2022-12-18T17:35:46;15.68;;;3.13;;
9186;SDS011;7273;48.902;9.410;2022-12-18T17:38:12;4.95;;;2.13;;